Time;durP1;ratioP1;P1;durP2;ratioP2;P2;SDS_P1;SDS_P2;PMS_P1;PMS_P2;Temp;Humidity;BMP_temperature;BMP_pressure;BME280_temperature;BME280_humidity;BME280_pressure;Samples;Min_cycle;Max_cycle;Signal;HPM_P1;HPM_P2
2023/05/03 00:02:30;;;;;;;35.60;22.08;;;;;;;;;;6242898;28;20064;-56
2023/05/03 00:05:31;;;;;;;37.75;22.67;;;;;;;;;;6243652;28;20092;-53
2023/05/03 00:08:32;;;;;;;37.58;23.48;;;;;;;;;;6244246;28;20046;-58
2023/05/03 00:11:33;;;;;;;35.00;22.15;;;;;;;;;;6243015;28;20385;-60
2023/05/03 00:14:33;;;;;;;32.30;19.85;;;;;;;;;;6242675;28;20059;-58
2023/05/03 00:17:35;;;;;;;31.80;19.75;;;;;;;;;;6243667;28;20045;-55
2023/05/03 00:20:36;;;;;;;35.63;21.23;;;;;;;;;;6243212;28;20049;-51
2023/05/03 00:23:36;;;;;;;35.95;20.20;;;;;;;;;;6240997;28;20404;-55
2023/05/03 00:26:37;;;;;;;32.97;20.30;;;;;;;;;;6243004;28;20131;-53
2023/05/03 00:29:37;;;;;;;35.90;20.30;;;;;;;;;;6242942;28;20062;-56
2023/05/03 00:32:38;;;;;;;35.38;21.33;;;;;;;;;;6242390;28;20041;-52
2023/05/03 00:35:39;;;;;;;33.53;20.15;;;;;;;;;;6243044;28;20056;-56
2023/05/03 00:38:40;;;;;;;33.38;21.00;;;;;;;;;;6243261;28;20472;-55
2023/05/03 00:41:41;;;;;;;31.50;20.07;;;;;;;;;;6242321;28;20499;-52
2023/05/03 00:44:42;;;;;;;36.72;21.67;;;;;;;;;;6242650;28;20295;-54
2023/05/03 00:47:42;;;;;;;31.02;18.98;;;;;;;;;;6242924;28;20099;-52
2023/05/03 00:50:44;;;;;;;38.35;21.08;;;;;;;;;;6242261;28;20091;-55
2023/05/03 00:53:45;;;;;;;33.83;21.50;;;;;;;;;;6241784;28;20072;-65
2023/05/03 00:56:46;;;;;;;33.33;20.30;;;;;;;;;;6242554;28;20150;-55
2023/05/03 00:59:47;;;;;;;31.83;20.50;;;;;;;;;;6243074;28;20053;-52
2023/05/03 01:02:48;;;;;;;34.13;20.63;;;;;;;;;;6241641;28;20155;-64
2023/05/03 01:06:02;;;;;;;35.28;20.48;;;;;;;;;;6242291;28;20072;-59
2023/05/03 01:09:31;;;;;;;35.28;19.92;;;;;;;;;;6242671;28;20060;-51
2023/05/03 01:12:50;;;;;;;37.75;22.95;;;;;;;;;;6242391;28;20075;-57
2023/05/03 01:16:15;;;;;;;44.28;25.08;;;;;;;;;;6241231;28;20061;-54
2023/05/03 01:19:41;;;;;;;38.08;23.50;;;;;;;;;;6241622;28;20052;-53
2023/05/03 01:23:14;;;;;;;40.15;23.15;;;;;;;;;;6241453;28;20045;-51
2023/05/03 01:26:24;;;;;;;39.22;23.52;;;;;;;;;;6228328;28;20057;-54
2023/05/03 01:29:25;;;;;;;36.17;22.50;;;;;;;;;;6242309;28;20379;-55
2023/05/03 01:32:35;;;;;;;41.22;25.08;;;;;;;;;;6241187;28;20050;-53
2023/05/03 01:35:54;;;;;;;38.58;23.27;;;;;;;;;;6242460;28;20045;-52
2023/05/03 01:38:54;;;;;;;39.13;23.95;;;;;;;;;;6242146;28;20128;-55
2023/05/03 01:41:56;;;;;;;35.45;21.80;;;;;;;;;;6241166;28;20099;-52
2023/05/03 01:44:57;;;;;;;37.20;22.10;;;;;;;;;;6241702;28;20057;-53
2023/05/03 01:47:58;;;;;;;35.63;22.15;;;;;;;;;;6242041;28;20042;-54
2023/05/03 01:50:59;;;;;;;34.70;22.23;;;;;;;;;;6242168;28;20057;-56
2023/05/03 01:53:59;;;;;;;33.75;22.17;;;;;;;;;;6241135;28;20141;-55
2023/05/03 01:57:00;;;;;;;37.85;22.75;;;;;;;;;;6241864;28;20049;-52
2023/05/03 02:00:01;;;;;;;38.80;22.92;;;;;;;;;;6241893;28;20045;-51
2023/05/03 02:03:02;;;;;;;33.50;22.30;;;;;;;;;;6242366;28;20060;-56
2023/05/03 02:06:03;;;;;;;36.88;23.00;;;;;;;;;;6246643;28;20073;-53
2023/05/03 02:09:03;;;;;;;37.75;23.13;;;;;;;;;;6246673;28;20045;-56
2023/05/03 02:12:04;;;;;;;36.80;23.15;;;;;;;;;;6245278;28;20423;-54
2023/05/03 02:15:05;;;;;;;37.10;23.85;;;;;;;;;;6245887;28;20462;-51
2023/05/03 02:18:07;;;;;;;40.40;23.97;;;;;;;;;;6246129;28;20420;-54
2023/05/03 02:21:09;;;;;;;42.03;24.33;;;;;;;;;;6245895;28;20317;-52
2023/05/03 02:24:09;;;;;;;41.78;25.02;;;;;;;;;;6245288;28;20045;-57
2023/05/03 02:27:10;;;;;;;39.90;23.10;;;;;;;;;;6245910;28;20064;-51
2023/05/03 02:30:11;;;;;;;41.42;22.73;;;;;;;;;;6245740;28;20052;-54
2023/05/03 02:33:11;;;;;;;38.65;23.67;;;;;;;;;;6245322;28;20057;-50
2023/05/03 02:36:12;;;;;;;37.85;23.17;;;;;;;;;;6245802;28;20541;-53
2023/05/03 02:39:12;;;;;;;37.55;24.35;;;;;;;;;;6245637;28;20042;-53
2023/05/03 02:42:13;;;;;;;38.72;22.80;;;;;;;;;;6244973;28;20120;-64
2023/05/03 02:45:13;;;;;;;36.53;23.27;;;;;;;;;;6245332;28;20050;-55
2023/05/03 02:48:15;;;;;;;37.22;22.83;;;;;;;;;;6245504;28;20076;-52
2023/05/03 02:51:15;;;;;;;39.33;22.45;;;;;;;;;;6245300;28;20064;-51
2023/05/03 02:54:16;;;;;;;35.28;21.25;;;;;;;;;;6244578;28;20515;-51
2023/05/03 02:57:16;;;;;;;38.35;22.42;;;;;;;;;;6245755;28;20050;-52
2023/05/03 03:00:18;;;;;;;36.10;22.65;;;;;;;;;;6245072;28;20059;-51
2023/05/03 03:03:18;;;;;;;38.28;23.08;;;;;;;;;;6244465;28;20690;-51
2023/05/03 03:06:19;;;;;;;39.05;22.17;;;;;;;;;;6245054;28;20045;-54
2023/05/03 03:09:19;;;;;;;36.08;22.27;;;;;;;;;;6245000;28;20045;-52
2023/05/03 03:12:20;;;;;;;35.15;21.90;;;;;;;;;;6244344;28;20060;-53
2023/05/03 03:15:21;;;;;;;36.25;21.92;;;;;;;;;;6243951;28;20072;-53
2023/05/03 03:18:21;;;;;;;34.25;20.67;;;;;;;;;;6245043;28;20057;-53
2023/05/03 03:21:22;;;;;;;35.97;21.85;;;;;;;;;;6244660;28;20069;-58
2023/05/03 03:24:22;;;;;;;35.78;21.52;;;;;;;;;;6244011;28;20408;-51
2023/05/03 03:27:23;;;;;;;34.50;21.25;;;;;;;;;;6244845;28;20058;-50
2023/05/03 03:30:24;;;;;;;33.78;20.65;;;;;;;;;;6244313;28;20163;-51
2023/05/03 03:33:24;;;;;;;32.95;20.52;;;;;;;;;;6243634;28;20520;-50
2023/05/03 03:36:26;;;;;;;30.63;19.42;;;;;;;;;;6244652;28;20092;-54
2023/05/03 03:39:27;;;;;;;32.78;19.40;;;;;;;;;;6244376;28;20045;-59
2023/05/03 03:42:27;;;;;;;31.10;18.65;;;;;;;;;;6243340;28;20163;-50
2023/05/03 03:45:28;;;;;;;30.17;19.23;;;;;;;;;;6243985;28;20045;-53
2023/05/03 03:48:29;;;;;;;30.65;18.10;;;;;;;;;;6244022;28;20065;-50
2023/05/03 03:51:30;;;;;;;30.80;18.70;;;;;;;;;;6243655;28;20056;-53
2023/05/03 03:54:30;;;;;;;30.42;19.45;;;;;;;;;;6243364;28;20049;-55
2023/05/03 03:57:31;;;;;;;30.15;18.25;;;;;;;;;;6244128;28;20095;-52
2023/05/03 04:00:33;;;;;;;30.48;18.15;;;;;;;;;;6243532;28;20053;-53
2023/05/03 04:03:34;;;;;;;27.23;17.58;;;;;;;;;;6242750;28;20045;-54
2023/05/03 04:06:34;;;;;;;27.98;17.38;;;;;;;;;;6243877;28;20083;-53
2023/05/03 04:09:35;;;;;;;30.17;18.83;;;;;;;;;;6243424;28;20053;-51
2023/05/03 04:12:36;;;;;;;33.00;18.80;;;;;;;;;;6242311;28;20072;-52
2023/05/03 04:15:37;;;;;;;33.30;18.50;;;;;;;;;;6241100;28;20587;-54
2023/05/03 04:18:38;;;;;;;34.67;19.85;;;;;;;;;;6243544;28;20416;-55
2023/05/03 04:21:38;;;;;;;31.83;19.70;;;;;;;;;;6242557;28;20060;-54
2023/05/03 04:24:40;;;;;;;36.35;20.80;;;;;;;;;;6242439;28;20037;-51
2023/05/03 04:27:43;;;;;;;40.33;22.38;;;;;;;;;;6243015;28;20108;-50
2023/05/03 04:30:45;;;;;;;36.35;21.85;;;;;;;;;;6242657;28;20107;-52
2023/05/03 04:33:46;;;;;;;41.50;23.10;;;;;;;;;;6242337;28;20133;-52
2023/05/03 04:36:47;;;;;;;38.55;22.48;;;;;;;;;;6242887;28;20136;-52
2023/05/03 04:39:48;;;;;;;38.55;23.02;;;;;;;;;;6243119;28;20186;-50
2023/05/03 04:42:49;;;;;;;39.42;21.92;;;;;;;;;;6241959;28;20202;-51
2023/05/03 04:45:52;;;;;;;36.78;20.95;;;;;;;;;;6242769;28;20048;-50
2023/05/03 04:48:52;;;;;;;37.80;20.58;;;;;;;;;;6242876;28;20045;-50
2023/05/03 04:51:53;;;;;;;39.42;22.30;;;;;;;;;;6242390;28;20075;-52
2023/05/03 04:54:54;;;;;;;41.85;22.05;;;;;;;;;;6242339;28;20079;-55
2023/05/03 04:57:55;;;;;;;38.38;21.10;;;;;;;;;;6242550;28;20071;-52
2023/05/03 05:00:56;;;;;;;41.08;21.85;;;;;;;;;;6242328;28;20384;-63
2023/05/03 05:03:56;;;;;;;40.20;22.35;;;;;;;;;;6241650;28;20049;-62
2023/05/03 05:06:58;;;;;;;41.15;22.83;;;;;;;;;;6242785;28;20049;-59
2023/05/03 05:09:58;;;;;;;40.73;22.33;;;;;;;;;;6242341;28;20123;-52
2023/05/03 05:12:59;;;;;;;39.55;21.55;;;;;;;;;;6241462;28;20069;-66
2023/05/03 05:16:00;;;;;;;43.85;22.20;;;;;;;;;;6242318;28;20412;-51
2023/05/03 05:19:00;;;;;;;41.90;22.27;;;;;;;;;;6242329;28;20055;-59
2023/05/03 05:22:01;;;;;;;44.92;23.73;;;;;;;;;;6242092;28;20060;-52
2023/05/03 05:25:02;;;;;;;42.83;21.63;;;;;;;;;;6241867;28;20635;-51
2023/05/03 05:28:02;;;;;;;42.50;24.55;;;;;;;;;;6242334;28;20057;-62
2023/05/03 05:31:03;;;;;;;36.25;19.88;;;;;;;;;;6241726;28;20530;-52
2023/05/03 05:34:04;;;;;;;34.42;18.88;;;;;;;;;;6241237;28;20058;-50
2023/05/03 05:37:06;;;;;;;36.22;18.35;;;;;;;;;;6243793;28;20057;-55
2023/05/03 05:40:07;;;;;;;26.25;15.43;;;;;;;;;;6247258;28;20100;-51
2023/05/03 05:43:08;;;;;;;29.20;15.63;;;;;;;;;;6246271;28;20033;-51
2023/05/03 05:46:09;;;;;;;25.27;15.73;;;;;;;;;;6246703;28;20219;-53
2023/05/03 05:49:09;;;;;;;28.10;14.48;;;;;;;;;;6246963;28;20128;-57
2023/05/03 05:52:10;;;;;;;24.42;14.65;;;;;;;;;;6245932;28;20053;-54
2023/05/03 05:55:13;;;;;;;27.17;14.80;;;;;;;;;;6246631;28;20050;-52
2023/05/03 05:58:13;;;;;;;30.13;15.70;;;;;;;;;;6246745;28;20049;-53
2023/05/03 06:01:14;;;;;;;27.20;14.13;;;;;;;;;;6246358;28;20045;-50
2023/05/03 06:04:15;;;;;;;26.45;15.18;;;;;;;;;;6245888;28;20053;-53
2023/05/03 06:07:15;;;;;;;28.33;15.40;;;;;;;;;;6246486;28;20099;-51
2023/05/03 06:10:16;;;;;;;26.42;14.50;;;;;;;;;;6246391;28;20064;-50
2023/05/03 06:13:17;;;;;;;28.63;15.85;;;;;;;;;;6245305;28;20076;-51
2023/05/03 06:16:17;;;;;;;26.40;15.13;;;;;;;;;;6245904;28;20068;-55
2023/05/03 06:19:19;;;;;;;22.23;13.40;;;;;;;;;;6246210;28;20176;-52
2023/05/03 06:22:20;;;;;;;22.95;12.80;;;;;;;;;;6245519;28;20079;-52
2023/05/03 06:25:20;;;;;;;24.67;12.65;;;;;;;;;;6245626;28;20575;-63
2023/05/03 06:28:21;;;;;;;24.08;12.32;;;;;;;;;;6246008;28;20053;-51
2023/05/03 06:31:21;;;;;;;18.73;10.32;;;;;;;;;;6245491;28;20066;-52
2023/05/03 06:34:22;;;;;;;22.05;11.85;;;;;;;;;;6245043;28;20045;-62
2023/05/03 06:37:23;;;;;;;21.15;10.68;;;;;;;;;;6245998;28;20095;-56
2023/05/03 06:40:25;;;;;;;20.77;11.05;;;;;;;;;;6245624;28;20054;-65
2023/05/03 06:43:25;;;;;;;18.35;9.75;;;;;;;;;;6244980;28;20476;-51
2023/05/03 06:46:30;;;;;;;17.95;10.45;;;;;;;;;;6245404;28;20053;-51
2023/05/03 06:49:31;;;;;;;17.27;9.57;;;;;;;;;;6244844;28;20102;-53
2023/05/03 06:52:32;;;;;;;22.88;10.43;;;;;;;;;;6244701;28;20068;-54
2023/05/03 06:55:32;;;;;;;18.13;9.35;;;;;;;;;;6245531;28;20045;-51
2023/05/03 06:58:33;;;;;;;20.25;9.13;;;;;;;;;;6245604;28;20038;-54
2023/05/03 07:01:33;;;;;;;14.95;8.45;;;;;;;;;;6244752;28;20068;-66
2023/05/03 07:04:36;;;;;;;14.85;7.95;;;;;;;;;;6244646;28;20046;-51
2023/05/03 07:07:37;;;;;;;18.83;10.45;;;;;;;;;;6245148;28;20518;-59
2023/05/03 07:10:37;;;;;;;14.27;6.72;;;;;;;;;;6245057;28;20412;-65
2023/05/03 07:13:38;;;;;;;18.60;9.05;;;;;;;;;;6243961;28;20078;-54
2023/05/03 07:16:38;;;;;;;13.10;7.72;;;;;;;;;;6244727;28;20049;-54
2023/05/03 07:19:39;;;;;;;15.13;7.72;;;;;;;;;;6244857;28;20132;-55
2023/05/03 07:22:39;;;;;;;15.15;7.80;;;;;;;;;;6244059;28;20064;-55
2023/05/03 07:25:41;;;;;;;16.00;7.93;;;;;;;;;;6244930;28;20499;-57
2023/05/03 07:28:42;;;;;;;17.67;7.90;;;;;;;;;;6244555;28;20049;-51
2023/05/03 07:31:43;;;;;;;15.23;7.15;;;;;;;;;;6244314;28;20297;-53
2023/05/03 07:34:44;;;;;;;11.27;6.93;;;;;;;;;;6243853;28;20049;-53
2023/05/03 07:37:45;;;;;;;14.50;6.47;;;;;;;;;;6244704;28;20068;-53
2023/05/03 07:40:45;;;;;;;12.88;6.93;;;;;;;;;;6244318;28;20053;-56
2023/05/03 07:43:46;;;;;;;13.52;6.75;;;;;;;;;;6243541;28;20487;-59
2023/05/03 07:46:46;;;;;;;14.15;6.75;;;;;;;;;;6244144;28;20046;-53
2023/05/03 07:49:49;;;;;;;14.50;6.82;;;;;;;;;;6244513;28;20056;-58
2023/05/03 07:52:50;;;;;;;13.10;6.30;;;;;;;;;;6243857;28;20042;-60
2023/05/03 07:55:54;;;;;;;11.90;6.83;;;;;;;;;;6243854;28;20054;-54
2023/05/03 07:58:56;;;;;;;13.65;6.60;;;;;;;;;;6244186;28;20065;-53
2023/05/03 08:01:56;;;;;;;15.93;7.28;;;;;;;;;;6242374;28;20049;-65
2023/05/03 08:04:57;;;;;;;13.85;7.68;;;;;;;;;;6243182;28;20408;-53
2023/05/03 08:07:57;;;;;;;18.58;9.38;;;;;;;;;;6243759;28;20045;-57
2023/05/03 08:10:58;;;;;;;15.55;6.55;;;;;;;;;;6243323;28;20049;-67
2023/05/03 08:13:59;;;;;;;9.88;4.90;;;;;;;;;;6242531;28;20203;-55
2023/05/03 08:16:59;;;;;;;11.13;5.53;;;;;;;;;;6243246;28;20057;-52
2023/05/03 08:20:00;;;;;;;11.98;5.22;;;;;;;;;;6243302;28;20051;-53
2023/05/03 08:23:01;;;;;;;11.52;5.10;;;;;;;;;;6242360;28;20091;-56
2023/05/03 08:26:03;;;;;;;12.80;5.13;;;;;;;;;;6243328;28;20081;-59
2023/05/03 08:29:03;;;;;;;9.77;4.80;;;;;;;;;;6243313;28;20080;-53
2023/05/03 08:32:04;;;;;;;10.18;4.72;;;;;;;;;;6242565;28;20045;-53
2023/05/03 08:35:05;;;;;;;9.65;5.47;;;;;;;;;;6242819;28;20037;-58
2023/05/03 08:38:06;;;;;;;10.88;5.75;;;;;;;;;;6243162;28;20049;-55
2023/05/03 08:41:32;;;;;;;8.43;5.85;;;;;;;;;;6242892;28;20046;-54
2023/05/03 08:44:39;;;;;;;12.23;5.75;;;;;;;;;;6239259;28;20041;-53
2023/05/03 08:47:43;;;;;;;11.65;5.90;;;;;;;;;;6242562;28;20045;-56
2023/05/03 08:50:44;;;;;;;13.48;7.35;;;;;;;;;;6243032;28;20406;-54
2023/05/03 08:53:45;;;;;;;15.80;6.53;;;;;;;;;;6242507;28;20053;-54
2023/05/03 08:56:46;;;;;;;12.15;5.72;;;;;;;;;;6242148;28;20045;-52
2023/05/03 08:59:57;;;;;;;11.10;5.38;;;;;;;;;;6242676;28;20496;-54
2023/05/03 09:02:58;;;;;;;10.02;5.00;;;;;;;;;;6242503;28;20075;-55
2023/05/03 09:06:01;;;;;;;9.20;5.15;;;;;;;;;;6241430;28;20381;-52
2023/05/03 09:09:06;;;;;;;9.52;5.07;;;;;;;;;;6242530;28;20056;-56
2023/05/03 09:12:06;;;;;;;13.02;5.70;;;;;;;;;;6242350;28;20064;-51
2023/05/03 09:15:13;;;;;;;11.88;5.22;;;;;;;;;;6241470;28;20053;-55
2023/05/03 09:18:18;;;;;;;9.20;5.18;;;;;;;;;;6242182;28;20454;-55
2023/05/03 09:21:19;;;;;;;13.30;6.60;;;;;;;;;;6242376;28;20484;-55
2023/05/03 09:24:21;;;;;;;8.65;5.50;;;;;;;;;;6242497;28;20046;-59
2023/05/03 09:27:23;;;;;;;14.80;6.32;;;;;;;;;;6241250;28;20419;-55
2023/05/03 09:30:24;;;;;;;14.63;6.18;;;;;;;;;;6241287;28;20542;-63
2023/05/03 09:33:28;;;;;;;11.13;6.05;;;;;;;;;;6242278;28;20419;-62
2023/05/03 09:36:45;;;;;;;16.70;6.55;;;;;;;;;;6241623;28;20445;-65
2023/05/03 09:39:46;;;;;;;12.23;7.22;;;;;;;;;;6241899;28;20056;-55
2023/05/03 09:43:09;;;;;;;12.68;7.13;;;;;;;;;;6242056;28;20049;-55
2023/05/03 09:46:11;;;;;;;12.90;6.97;;;;;;;;;;6241948;28;20045;-52
2023/05/03 09:49:12;;;;;;;13.65;7.20;;;;;;;;;;6241026;28;20053;-51
2023/05/03 09:52:13;;;;;;;12.35;6.82;;;;;;;;;;6242084;28;20522;-63
2023/05/03 09:55:16;;;;;;;14.45;7.28;;;;;;;;;;6242033;28;20141;-55
2023/05/03 09:58:17;;;;;;;12.02;7.38;;;;;;;;;;6241123;28;20045;-52
2023/05/03 10:01:19;;;;;;;15.27;7.70;;;;;;;;;;6241474;28;20045;-52
2023/05/03 10:04:20;;;;;;;;;;;;;;;;;;6242682;28;20053;-53
2023/05/03 10:07:24;;;;;;;12.25;6.20;;;;;;;;;;6241625;28;19924;-53
2023/05/03 10:10:28;;;;;;;12.65;6.10;;;;;;;;;;6241209;28;20136;-51
2023/05/03 10:13:29;;;;;;;12.50;6.07;;;;;;;;;;6241938;28;20050;-55
2023/05/03 10:16:35;;;;;;;12.57;6.15;;;;;;;;;;6241631;28;20068;-55
2023/05/03 10:19:38;;;;;;;11.63;6.60;;;;;;;;;;6240805;28;20055;-52
2023/05/03 10:23:03;;;;;;;12.38;6.40;;;;;;;;;;6241445;28;20045;-53
2023/05/03 10:26:08;;;;;;;14.80;6.75;;;;;;;;;;6245869;28;20476;-53
2023/05/03 10:29:33;;;;;;;13.35;7.32;;;;;;;;;;6245761;28;20450;-68
2023/05/03 10:32:38;;;;;;;12.48;7.05;;;;;;;;;;6237951;28;20037;-52
2023/05/03 10:35:41;;;;;;;15.80;8.45;;;;;;;;;;6245498;28;20052;-51
2023/05/03 10:38:41;;;;;;;14.02;7.38;;;;;;;;;;6245925;28;20061;-54
2023/05/03 10:41:42;;;;;;;13.98;8.75;;;;;;;;;;6245812;28;20069;-52
2023/05/03 10:44:48;;;;;;;13.95;8.52;;;;;;;;;;6244860;28;20050;-53
2023/05/03 10:48:11;;;;;;;15.57;8.77;;;;;;;;;;6245567;28;20055;-53
2023/05/03 10:51:32;;;;;;;14.75;8.73;;;;;;;;;;6245600;28;20060;-59
2023/05/03 10:54:33;;;;;;;13.73;7.90;;;;;;;;;;6245138;28;20049;-68
2023/05/03 10:57:33;;;;;;;15.95;8.15;;;;;;;;;;6244708;28;20056;-52
2023/05/03 11:00:37;;;;;;;16.67;8.02;;;;;;;;;;6245288;28;20567;-56
2023/05/03 11:03:47;;;;;;;14.18;8.38;;;;;;;;;;6245337;28;20081;-62
2023/05/03 11:06:50;;;;;;;14.70;8.13;;;;;;;;;;6244080;28;20045;-55
2023/05/03 11:09:51;;;;;;;19.13;8.15;;;;;;;;;;6245271;28;20056;-58
2023/05/03 11:12:51;;;;;;;14.82;8.40;;;;;;;;;;6245083;28;20128;-56
2023/05/03 11:15:53;;;;;;;17.65;8.75;;;;;;;;;;6243853;28;20526;-56
2023/05/03 11:18:58;;;;;;;14.35;8.10;;;;;;;;;;6244534;28;20590;-53
2023/05/03 11:22:00;;;;;;;15.85;9.40;;;;;;;;;;6244791;28;20415;-52
2023/05/03 11:25:01;;;;;;;14.80;8.82;;;;;;;;;;6244595;28;20144;-53
2023/05/03 11:28:05;;;;;;;14.23;8.75;;;;;;;;;;6243861;28;20488;-56
2023/05/03 11:31:08;;;;;;;16.75;8.60;;;;;;;;;;6244514;28;20520;-57
2023/05/03 11:34:10;;;;;;;21.08;9.93;;;;;;;;;;6244166;28;20520;-52
2023/05/03 11:37:11;;;;;;;17.27;9.90;;;;;;;;;;6243429;28;20660;-56
2023/05/03 11:40:15;;;;;;;21.05;11.82;;;;;;;;;;6244208;28;20491;-52
2023/05/03 11:43:16;;;;;;;20.20;11.20;;;;;;;;;;6244268;28;20045;-56
2023/05/03 11:46:20;;;;;;;17.10;9.25;;;;;;;;;;6243279;28;20360;-66
2023/05/03 11:49:22;;;;;;;14.80;8.43;;;;;;;;;;6243402;28;20080;-53
2023/05/03 11:52:24;;;;;;;;;;;;;;;;;;6244598;28;20046;-57
2023/05/03 11:55:25;;;;;;;14.73;8.07;;;;;;;;;;6243808;28;20364;-55
2023/05/03 11:58:25;;;;;;;16.02;9.13;;;;;;;;;;6242817;28;20052;-55
2023/05/03 12:01:27;;;;;;;14.65;8.68;;;;;;;;;;6243825;28;20046;-64
2023/05/03 12:04:29;;;;;;;13.75;8.15;;;;;;;;;;6243973;28;20049;-55
2023/05/03 12:07:31;;;;;;;14.73;8.07;;;;;;;;;;6242710;28;20056;-52
2023/05/03 12:10:32;;;;;;;15.30;7.90;;;;;;;;;;6243808;28;20050;-55
2023/05/03 12:13:35;;;;;;;13.50;7.68;;;;;;;;;;6243650;28;20076;-53
2023/05/03 12:16:48;;;;;;;13.75;7.50;;;;;;;;;;6242905;28;20152;-52
2023/05/03 12:19:49;;;;;;;13.60;7.63;;;;;;;;;;6242557;28;20041;-51
2023/05/03 12:22:51;;;;;;;16.77;8.02;;;;;;;;;;6243433;28;20419;-52
2023/05/03 12:25:52;;;;;;;14.88;7.68;;;;;;;;;;6243335;28;20053;-51
2023/05/03 12:28:52;;;;;;;14.85;8.45;;;;;;;;;;6242382;28;20500;-53
2023/05/03 12:31:53;;;;;;;13.60;8.65;;;;;;;;;;6242220;28;20083;-54
2023/05/03 12:34:56;;;;;;;15.00;8.27;;;;;;;;;;6241875;28;20053;-54
2023/05/03 12:37:57;;;;;;;16.58;9.02;;;;;;;;;;6242213;28;20045;-55
2023/05/03 12:40:58;;;;;;;13.20;8.65;;;;;;;;;;6242803;28;20404;-52
2023/05/03 12:44:01;;;;;;;14.27;8.97;;;;;;;;;;6243045;28;20124;-55
2023/05/03 12:47:02;;;;;;;17.08;9.18;;;;;;;;;;6241801;28;20804;-53
2023/05/03 12:50:04;;;;;;;16.42;10.73;;;;;;;;;;6242242;28;20057;-53
2023/05/03 12:53:04;;;;;;;15.38;10.05;;;;;;;;;;6242933;28;20052;-54
2023/05/03 12:56:06;;;;;;;18.33;10.75;;;;;;;;;;6242817;28;20041;-63
2023/05/03 12:59:06;;;;;;;15.88;10.68;;;;;;;;;;6241596;28;20407;-54
2023/05/03 13:02:09;;;;;;;21.98;11.80;;;;;;;;;;6242579;28;20049;-54
2023/05/03 13:05:12;;;;;;;18.02;11.32;;;;;;;;;;6242692;28;20056;-53
2023/05/03 13:08:12;;;;;;;16.25;10.40;;;;;;;;;;6241700;28;20534;-53
2023/05/03 13:11:13;;;;;;;18.45;11.32;;;;;;;;;;6242160;28;20104;-62
2023/05/03 13:14:14;;;;;;;15.55;9.75;;;;;;;;;;6242281;28;20053;-53
2023/05/03 13:17:15;;;;;;;18.13;9.90;;;;;;;;;;6241932;28;20131;-51
2023/05/03 13:20:16;;;;;;;13.88;9.48;;;;;;;;;;6241428;28;20098;-55
2023/05/03 13:23:17;;;;;;;14.70;9.32;;;;;;;;;;6242331;28;20053;-53
2023/05/03 13:26:17;;;;;;;16.35;10.18;;;;;;;;;;6242057;28;20049;-57
2023/05/03 13:29:18;;;;;;;14.32;9.55;;;;;;;;;;6241482;28;20049;-57
2023/05/03 13:32:18;;;;;;;17.98;9.60;;;;;;;;;;6242056;28;20062;-53
2023/05/03 13:35:19;;;;;;;19.88;10.38;;;;;;;;;;6242134;28;20049;-55
2023/05/03 13:38:20;;;;;;;16.25;10.95;;;;;;;;;;6241446;28;20045;-53
2023/05/03 13:41:22;;;;;;;18.70;10.80;;;;;;;;;;6242007;28;20055;-52
2023/05/03 13:44:24;;;;;;;15.57;11.18;;;;;;;;;;6242142;28;20128;-53
2023/05/03 13:47:26;;;;;;;16.55;10.15;;;;;;;;;;6241737;28;20077;-63
2023/05/03 13:50:29;;;;;;;19.30;10.75;;;;;;;;;;6241267;28;20042;-51
2023/05/03 13:53:30;;;;;;;19.02;10.52;;;;;;;;;;6242055;28;20051;-61
2023/05/03 13:56:31;;;;;;;18.88;10.50;;;;;;;;;;6242322;28;20049;-53
2023/05/03 13:59:32;;;;;;;16.08;10.27;;;;;;;;;;6244784;28;20488;-54
2023/05/03 14:02:33;;;;;;;17.88;10.60;;;;;;;;;;6246581;28;20042;-55
2023/05/03 14:05:34;;;;;;;18.73;10.82;;;;;;;;;;6246564;28;20045;-52
2023/05/03 14:08:34;;;;;;;21.00;10.68;;;;;;;;;;6246190;28;20483;-52
2023/05/03 14:11:36;;;;;;;21.48;11.07;;;;;;;;;;6246314;28;20123;-56
2023/05/03 14:14:37;;;;;;;21.25;10.77;;;;;;;;;;6246318;28;20064;-56
2023/05/03 14:17:37;;;;;;;16.23;10.13;;;;;;;;;;6246096;28;20152;-52
2023/05/03 14:20:38;;;;;;;15.43;9.82;;;;;;;;;;6245445;28;20041;-54
2023/05/03 14:23:39;;;;;;;19.85;10.43;;;;;;;;;;6246145;28;20626;-55
2023/05/03 14:26:40;;;;;;;14.73;9.10;;;;;;;;;;6246150;28;20053;-55
2023/05/03 14:29:41;;;;;;;17.50;9.50;;;;;;;;;;6245055;28;20052;-65
2023/05/03 14:32:41;;;;;;;18.48;9.25;;;;;;;;;;6246108;28;20049;-52
2023/05/03 14:35:42;;;;;;;13.18;8.88;;;;;;;;;;6245959;28;20045;-53
2023/05/03 14:38:43;;;;;;;15.73;9.35;;;;;;;;;;6245225;28;20103;-52
2023/05/03 14:41:44;;;;;;;16.75;8.93;;;;;;;;;;6245209;28;20041;-53
2023/05/03 14:44:44;;;;;;;15.43;9.48;;;;;;;;;;6245714;28;20048;-58
2023/05/03 14:47:45;;;;;;;16.75;9.48;;;;;;;;;;6245382;28;20056;-52
2023/05/03 14:50:49;;;;;;;13.45;8.45;;;;;;;;;;6244954;28;20049;-61
2023/05/03 14:53:51;;;;;;;14.57;8.65;;;;;;;;;;6245653;28;20041;-56
2023/05/03 14:56:51;;;;;;;15.40;9.05;;;;;;;;;;6245127;28;20111;-58
2023/05/03 14:59:52;;;;;;;15.90;9.07;;;;;;;;;;6244353;28;20049;-60
2023/05/03 15:02:54;;;;;;;15.48;9.40;;;;;;;;;;6245239;28;20492;-54
2023/05/03 15:05:55;;;;;;;17.92;8.00;;;;;;;;;;6245446;28;20049;-56
2023/05/03 15:08:57;;;;;;;13.75;8.40;;;;;;;;;;6243877;28;20049;-57
2023/05/03 15:11:58;;;;;;;16.42;9.30;;;;;;;;;;6244624;28;20045;-53
2023/05/03 15:14:59;;;;;;;12.40;7.47;;;;;;;;;;6245082;28;20072;-53
2023/05/03 15:17:59;;;;;;;15.70;7.28;;;;;;;;;;6244623;28;20116;-53
2023/05/03 15:21:00;;;;;;;12.90;7.13;;;;;;;;;;6244103;28;20049;-55
2023/05/03 15:24:01;;;;;;;11.43;7.25;;;;;;;;;;6244860;28;20123;-54
2023/05/03 15:27:01;;;;;;;12.73;7.43;;;;;;;;;;6244974;28;20088;-53
2023/05/03 15:30:02;;;;;;;12.38;7.13;;;;;;;;;;6243868;28;20045;-67
2023/05/03 15:33:03;;;;;;;11.55;7.03;;;;;;;;;;6244922;28;20573;-55
2023/05/03 15:36:06;;;;;;;14.93;7.78;;;;;;;;;;6244629;28;20053;-55
2023/05/03 15:39:08;;;;;;;13.75;8.50;;;;;;;;;;6243514;28;20049;-54
2023/05/03 15:42:08;;;;;;;18.17;9.50;;;;;;;;;;6244254;28;20389;-58
2023/05/03 15:45:09;;;;;;;15.77;7.80;;;;;;;;;;6244235;28;20460;-60
2023/05/03 15:48:10;;;;;;;11.95;7.78;;;;;;;;;;6244004;28;20080;-56
2023/05/03 15:51:10;;;;;;;13.90;7.60;;;;;;;;;;6243389;28;20084;-51
2023/05/03 15:54:11;;;;;;;11.35;6.20;;;;;;;;;;6244325;28;20057;-59
2023/05/03 15:57:12;;;;;;;11.63;7.05;;;;;;;;;;6243849;28;20100;-54
2023/05/03 16:00:15;;;;;;;12.70;7.50;;;;;;;;;;6242964;28;20122;-57
2023/05/03 16:03:16;;;;;;;13.73;9.30;;;;;;;;;;6243814;28;20049;-56
2023/05/03 16:06:17;;;;;;;14.35;7.55;;;;;;;;;;6243905;28;20056;-57
2023/05/03 16:09:18;;;;;;;11.93;6.90;;;;;;;;;;6242923;28;20488;-55
2023/05/03 16:12:18;;;;;;;11.57;7.03;;;;;;;;;;6243467;28;20045;-61
2023/05/03 16:15:19;;;;;;;11.95;7.18;;;;;;;;;;6243610;28;20523;-54
2023/05/03 16:18:20;;;;;;;13.23;8.15;;;;;;;;;;6243225;28;20099;-57
2023/05/03 16:21:20;;;;;;;13.93;7.00;;;;;;;;;;6241899;28;20050;-55
2023/05/03 16:24:21;;;;;;;12.35;6.55;;;;;;;;;;6241971;28;20056;-52
2023/05/03 16:27:22;;;;;;;13.50;7.57;;;;;;;;;;6243201;28;20049;-54
2023/05/03 16:30:22;;;;;;;25.60;15.73;;;;;;;;;;6242545;28;20050;-54
2023/05/03 16:33:23;;;;;;;19.23;9.50;;;;;;;;;;6243086;28;20137;-51
2023/05/03 16:36:23;;;;;;;16.92;8.98;;;;;;;;;;6243195;28;20456;-55
2023/05/03 16:39:24;;;;;;;17.27;7.80;;;;;;;;;;6241976;28;20200;-58
2023/05/03 16:42:24;;;;;;;17.42;9.65;;;;;;;;;;6243011;28;20053;-55
2023/05/03 16:45:25;;;;;;;13.73;7.28;;;;;;;;;;6243111;28;20095;-53
2023/05/03 16:48:30;;;;;;;9.73;6.15;;;;;;;;;;6242424;28;20049;-54
2023/05/03 16:51:31;;;;;;;10.68;6.13;;;;;;;;;;6242061;28;20484;-52
2023/05/03 16:54:32;;;;;;;13.35;6.25;;;;;;;;;;6243003;28;20046;-53
2023/05/03 16:57:32;;;;;;;10.93;5.70;;;;;;;;;;6242585;28;20507;-55
2023/05/03 17:00:33;;;;;;;9.55;6.00;;;;;;;;;;6241863;28;20045;-53
2023/05/03 17:03:34;;;;;;;13.13;5.75;;;;;;;;;;6242785;28;20049;-61
2023/05/03 17:06:35;;;;;;;9.93;5.88;;;;;;;;;;6242435;28;20053;-54
2023/05/03 17:09:36;;;;;;;9.85;5.40;;;;;;;;;;6241714;28;20494;-55
2023/05/03 17:12:37;;;;;;;13.93;5.90;;;;;;;;;;6242850;28;20046;-56
2023/05/03 17:15:38;;;;;;;12.90;6.82;;;;;;;;;;6242367;28;20095;-55
2023/05/03 17:18:39;;;;;;;11.75;5.40;;;;;;;;;;6241709;28;20484;-57
2023/05/03 17:21:40;;;;;;;13.70;7.30;;;;;;;;;;6242074;28;20099;-54
2023/05/03 17:24:40;;;;;;;14.27;8.10;;;;;;;;;;6242317;28;20045;-56
2023/05/03 17:27:42;;;;;;;16.55;7.32;;;;;;;;;;6241854;28;20056;-52
2023/05/03 17:30:43;;;;;;;15.05;6.82;;;;;;;;;;6241188;28;20420;-51
2023/05/03 17:33:45;;;;;;;15.43;7.50;;;;;;;;;;6245643;28;20041;-55
2023/05/03 17:36:45;;;;;;;16.45;9.68;;;;;;;;;;6247282;28;20061;-56
2023/05/03 17:39:46;;;;;;;17.38;7.53;;;;;;;;;;6246393;28;20128;-66
2023/05/03 17:42:47;;;;;;;16.45;8.45;;;;;;;;;;6247007;28;20496;-53
2023/05/03 17:45:47;;;;;;;16.95;8.75;;;;;;;;;;6247509;28;20053;-54
2023/05/03 17:48:48;;;;;;;16.27;8.02;;;;;;;;;;6246219;28;20053;-61
2023/05/03 17:51:49;;;;;;;15.15;8.90;;;;;;;;;;6246559;28;20041;-53